Time;durP1;ratioP1;P1;durP2;ratioP2;P2;SDS_P1;SDS_P2;PMS_P1;PMS_P2;Temp;Humidity;BMP_temperature;BMP_pressure;BME280_temperature;BME280_humidity;BME280_pressure;Samples;Min_cycle;Max_cycle;Signal;HPM_P1;HPM_P2
2022/05/09 00:00:40;;;;;;;;;;;;;;;19.39;57.40;100165.44;2074418;28;20412;-47
2022/05/09 00:01:41;;;;;;;;;;;;;;;19.37;57.46;100164.72;2075998;28;20279;-47
2022/05/09 00:02:41;;;;;;;;;;;;;;;19.38;57.56;100163.72;2088852;28;20536;-45
2022/05/09 00:03:44;;;;;;;;;;;;;;;19.38;57.44;100163.72;2085525;28;19917;-46
2022/05/09 00:04:44;;;;;;;;;;;;;;;19.38;57.50;100161.00;2085976;28;19927;-45
2022/05/09 00:05:44;;;;;;;;;;;;;;;19.37;57.37;100159.25;2075759;28;20351;-45
2022/05/09 00:06:45;;;;;;;;;;;;;;;19.37;57.38;100160.09;2075717;28;19988;-45
2022/05/09 00:07:46;;;;;;;;;;;;;;;19.37;57.39;100153.78;2084525;28;20003;-46
2022/05/09 00:08:46;;;;;;;;;;;;;;;19.37;57.52;100159.25;2084598;28;20385;-46
2022/05/09 00:09:46;;;;;;;;;;;;;;;19.37;57.29;100153.78;2085574;28;20334;-45
2022/05/09 00:10:47;;;;;;;;;;;;;;;19.38;57.33;100155.53;2084647;28;19975;-45
2022/05/09 00:11:47;;;;;;;;;;;;;;;19.36;57.27;100155.66;2083992;28;19939;-46
2022/05/09 00:12:47;;;;;;;;;;;;;;;19.37;57.39;100151.03;2089197;28;19951;-47
2022/05/09 00:13:48;;;;;;;;;;;;;;;19.37;57.34;100149.16;2084611;28;19940;-45
2022/05/09 00:14:48;;;;;;;;;;;;;;;19.37;57.51;100148.31;2083574;28;19924;-46
2022/05/09 00:15:49;;;;;;;;;;;;;;;19.37;57.36;100149.16;2083280;28;19912;-45
2022/05/09 00:16:51;;;;;;;;;;;;;;;19.37;57.36;100154.63;2084723;28;20600;-45
2022/05/09 00:17:51;;;;;;;;;;;;;;;19.36;57.38;100150.19;2087918;28;19915;-46
2022/05/09 00:18:51;;;;;;;;;;;;;;;19.37;57.42;100151.03;2085282;28;20061;-46
2022/05/09 00:19:52;;;;;;;;;;;;;;;19.36;57.34;100147.47;2085098;28;19909;-46
2022/05/09 00:20:52;;;;;;;;;;;;;;;19.37;57.31;100151.03;2084710;28;20223;-46
2022/05/09 00:21:53;;;;;;;;;;;;;;;19.37;57.31;100148.31;2083718;28;20330;-47
2022/05/09 00:22:54;;;;;;;;;;;;;;;19.36;57.45;100149.34;2090311;28;19978;-46
2022/05/09 00:23:54;;;;;;;;;;;;;;;19.36;57.39;100149.34;2083820;28;19916;-45
2022/05/09 00:24:54;;;;;;;;;;;;;;;19.36;57.41;100154.81;2086568;28;19962;-50
2022/05/09 00:25:55;;;;;;;;;;;;;;;19.36;57.48;100146.59;2084021;28;20552;-47
2022/05/09 00:26:57;;;;;;;;;;;;;;;19.35;57.46;100159.38;2083770;28;19931;-46
2022/05/09 00:27:57;;;;;;;;;;;;;;;19.36;57.46;100154.81;2086296;28;19916;-45
2022/05/09 00:28:58;;;;;;;;;;;;;;;19.35;57.45;100153.06;2083632;28;20005;-46
2022/05/09 00:29:59;;;;;;;;;;;;;;;19.35;57.33;100153.06;2085980;28;19924;-45
2022/05/09 00:30:59;;;;;;;;;;;;;;;19.36;57.45;100149.34;2083268;28;20020;-46
2022/05/09 00:32:00;;;;;;;;;;;;;;;19.35;57.54;100150.31;2083733;28;19951;-46
2022/05/09 00:33:00;;;;;;;;;;;;;;;19.35;57.48;100150.31;2074359;28;20211;-45
2022/05/09 00:34:01;;;;;;;;;;;;;;;19.34;57.61;100144.00;2075355;28;20191;-46
2022/05/09 00:35:01;;;;;;;;;;;;;;;19.35;57.52;100144.84;2085473;28;19920;-45
2022/05/09 00:36:01;;;;;;;;;;;;;;;19.35;57.52;100147.59;2084378;28;20128;-47
2022/05/09 00:37:02;;;;;;;;;;;;;;;19.34;57.54;100143.16;2084640;28;20343;-45
2022/05/09 00:38:02;;;;;;;;;;;;;;;19.35;57.46;100147.59;2084566;28;20113;-47
2022/05/09 00:39:03;;;;;;;;;;;;;;;19.34;57.34;100154.94;2083276;28;20157;-46
2022/05/09 00:40:08;;;;;;;;;;;;;;;19.35;57.31;100139.41;2084978;28;20974;-48
2022/05/09 00:42:27;;;;;;;;;;;;;;;19.34;57.27;100146.75;2083706;28;19916;-46
2022/05/09 00:43:30;;;;;;;;;;;;;;;19.34;57.31;100149.47;2082583;28;19917;-46
2022/05/09 00:44:30;;;;;;;;;;;;;;;19.36;57.23;100152.06;2085558;28;19909;-46
2022/05/09 00:45:30;;;;;;;;;;;;;;;19.34;57.31;100145.88;2084441;28;20328;-46
2022/05/09 00:46:30;;;;;;;;;;;;;;;19.36;57.21;100146.59;2084752;28;20003;-46
2022/05/09 00:47:31;;;;;;;;;;;;;;;19.36;57.29;100150.19;2083818;28;19956;-47
2022/05/09 00:48:32;;;;;;;;;;;;;;;19.35;57.19;100148.44;2084144;28;20409;-46
2022/05/09 00:49:32;;;;;;;;;;;;;;;19.35;57.24;100140.25;2086017;28;19929;-46
2022/05/09 00:50:32;;;;;;;;;;;;;;;19.35;57.33;100150.31;2083386;28;20430;-46
2022/05/09 00:51:34;;;;;;;;;;;;;;;19.35;57.19;100144.84;2083938;28;19920;-47
2022/05/09 00:52:40;;;;;;;;;;;;;;;19.35;57.24;100144.84;2082736;28;20186;-46
2022/05/09 00:53:41;;;;;;;;;;;;;;;19.35;57.24;100144.84;2076169;28;19952;-47
2022/05/09 00:54:50;;;;;;;;;;;;;;;19.34;57.30;100144.00;2088600;28;20645;-45
2022/05/09 00:55:54;;;;;;;;;;;;;;;19.35;57.30;100144.84;2093718;28;19916;-47
2022/05/09 00:57:01;;;;;;;;;;;;;;;19.35;57.54;100153.06;2085170;28;19955;-47
2022/05/09 00:58:09;;;;;;;;;;;;;;;19.34;57.39;100145.88;2082762;28;19923;-46
2022/05/09 00:59:11;;;;;;;;;;;;;;;19.34;57.32;100148.63;2085260;28;20219;-47
2022/05/09 01:00:16;;;;;;;;;;;;;;;19.34;57.49;100145.88;2084718;28;19958;-49
2022/05/09 01:01:17;;;;;;;;;;;;;;;19.33;57.49;100146.88;2084839;28;19920;-49
2022/05/09 01:02:18;;;;;;;;;;;;;;;19.33;57.39;100141.41;2083974;28;19976;-46
2022/05/09 01:03:24;;;;;;;;;;;;;;;19.32;57.61;100145.16;2084645;28;19916;-46
2022/05/09 01:04:27;;;;;;;;;;;;;;;19.32;57.46;100139.69;2084726;28;19927;-47
2022/05/09 01:05:28;;;;;;;;;;;;;;;19.32;57.54;100139.69;2083215;28;19924;-46
2022/05/09 01:06:28;;;;;;;;;;;;;;;19.31;57.54;100148.94;2083302;28;19924;-46
2022/05/09 01:07:30;;;;;;;;;;;;;;;19.31;57.67;100138.00;2086369;28;19966;-46
2022/05/09 01:08:34;;;;;;;;;;;;;;;19.32;57.54;100150.63;2084579;28;19924;-45
2022/05/09 01:09:34;;;;;;;;;;;;;;;19.31;57.54;100140.72;2085367;28;19970;-46
2022/05/09 01:10:37;;;;;;;;;;;;;;;19.31;57.64;100149.78;2081046;28;19912;-45
2022/05/09 01:11:38;;;;;;;;;;;;;;;19.30;57.55;100145.31;2084221;28;19920;-46
2022/05/09 01:12:39;;;;;;;;;;;;;;;19.31;57.50;100148.94;2083694;28;20257;-47
2022/05/09 01:13:43;;;;;;;;;;;;;;;19.32;57.50;100150.63;2084577;28;20367;-47
2022/05/09 01:14:43;;;;;;;;;;;;;;;19.31;57.45;100148.94;2083111;28;19943;-50
2022/05/09 01:15:46;;;;;;;;;;;;;;;19.31;57.41;100152.50;2083401;28;20555;-47
2022/05/09 01:16:47;;;;;;;;;;;;;;;19.32;57.21;100153.38;2088860;28;19915;-45
2022/05/09 01:17:49;;;;;;;;;;;;;;;19.33;57.33;100144.16;2084094;28;20457;-45
2022/05/09 01:18:49;;;;;;;;;;;;;;;19.33;57.32;100157.81;2076374;28;19939;-48
2022/05/09 01:19:52;;;;;;;;;;;;;;;19.32;57.24;100156.97;2076560;28;19923;-45
2022/05/09 01:20:53;;;;;;;;;;;;;;;19.32;57.35;100150.63;2074182;28;20991;-45
2022/05/09 01:21:53;;;;;;;;;;;;;;;19.32;57.30;100150.63;2074364;28;20348;-47
2022/05/09 01:22:57;;;;;;;;;;;;;;;19.32;57.38;100145.16;2083671;28;19924;-45
2022/05/09 01:23:57;;;;;;;;;;;;;;;19.32;57.27;100151.50;2078800;28;19917;-46
2022/05/09 01:25:05;;;;;;;;;;;;;;;19.33;57.42;100153.22;2084880;28;19916;-48
2022/05/09 01:26:05;;;;;;;;;;;;;;;19.32;57.38;100153.38;2084061;28;19970;-42
2022/05/09 01:27:05;;;;;;;;;;;;;;;19.33;57.34;100157.81;2080736;28;19932;-42
2022/05/09 01:28:06;;;;;;;;;;;;;;;19.31;57.31;100149.78;2083885;28;19972;-43
2022/05/09 01:29:12;;;;;;;;;;;;;;;19.32;57.43;100156.09;2085391;28;20805;-44
2022/05/09 01:30:12;;;;;;;;;;;;;;;19.31;57.42;100163.44;2083283;28;20778;-43
2022/05/09 01:31:15;;;;;;;;;;;;;;;19.31;57.49;100159.88;2084915;28;19920;-42
2022/05/09 01:32:17;;;;;;;;;;;;;;;19.31;57.53;100159.88;2082985;28;20249;-44
2022/05/09 01:33:20;;;;;;;;;;;;;;;19.30;57.60;100160.84;2084581;28;20235;-45
2022/05/09 01:34:20;;;;;;;;;;;;;;;19.30;57.68;100158.97;2079005;28;19924;-43
2022/05/09 01:35:34;;;;;;;;;;;;;;;19.30;57.67;100163.59;2085165;28;19916;-43
2022/05/09 01:36:36;;;;;;;;;;;;;;;19.31;57.71;100165.31;2084281;28;19964;-42
2022/05/09 01:37:37;;;;;;;;;;;;;;;19.30;57.62;100163.59;2080830;28;19967;-43
2022/05/09 01:38:38;;;;;;;;;;;;;;;19.30;57.71;100171.78;2081744;28;20530;-42
2022/05/09 01:39:39;;;;;;;;;;;;;;;19.31;57.65;100168.06;2084170;28;20007;-43
2022/05/09 01:40:39;;;;;;;;;;;;;;;19.28;57.76;100170.06;2083014;28;20011;-44
2022/05/09 01:41:44;;;;;;;;;;;;;;;19.28;57.64;100170.06;2084445;28;19927;-42
2022/05/09 01:42:44;;;;;;;;;;;;;;;19.30;57.67;100174.50;2077435;28;19917;-43
2022/05/09 01:43:48;;;;;;;;;;;;;;;19.30;57.69;100179.97;2083108;28;19940;-43
2022/05/09 01:44:49;;;;;;;;;;;;;;;19.30;57.59;100163.59;2084653;28;20467;-42
2022/05/09 01:45:49;;;;;;;;;;;;;;;19.30;57.57;100174.50;2084083;28;20314;-44
2022/05/09 01:49:31;;;;;;;;;;;;;;;19.28;57.50;100170.06;2079789;28;20157;-43
2022/05/09 01:50:31;;;;;;;;;;;;;;;19.30;57.46;100180.84;2083617;28;20333;-42
2022/05/09 01:51:32;;;;;;;;;;;;;;;19.30;57.46;100169.91;2081717;28;20070;-44
2022/05/09 01:52:32;;;;;;;;;;;;;;;19.30;57.34;100169.06;2082378;28;19921;-42
2022/05/09 01:53:33;;;;;;;;;;;;;;;19.30;57.40;100175.38;2083857;28;20346;-44
2022/05/09 01:54:34;;;;;;;;;;;;;;;19.30;57.50;100174.50;2082530;28;19916;-43
2022/05/09 01:55:34;;;;;;;;;;;;;;;19.31;57.42;100173.53;2074996;28;19909;-44
2022/05/09 01:56:35;;;;;;;;;;;;;;;19.31;57.40;100173.53;2075230;28;20303;-42
2022/05/09 01:57:35;;;;;;;;;;;;;;;19.31;57.48;100176.25;2083284;28;19927;-43
2022/05/09 01:58:35;;;;;;;;;;;;;;;19.31;57.49;100176.25;2083509;28;19965;-43
2022/05/09 01:59:36;;;;;;;;;;;;;;;19.30;57.42;100175.38;2084185;28;19974;-44
2022/05/09 02:00:37;;;;;;;;;;;;;;;19.30;57.37;100174.50;2082712;28;19931;-42
2022/05/09 02:01:43;;;;;;;;;;;;;;;19.31;57.53;100176.25;2084609;28;19912;-42
2022/05/09 02:02:44;;;;;;;;;;;;;;;19.28;57.46;100166.50;2083817;28;19916;-43
2022/05/09 02:03:47;;;;;;;;;;;;;;;19.27;57.40;100176.53;2085449;28;19919;-42
2022/05/09 02:04:47;;;;;;;;;;;;;;;19.28;57.52;100183.75;2083723;28;19966;-43
2022/05/09 02:05:48;;;;;;;;;;;;;;;19.27;57.52;100167.47;2083086;28;20758;-43
2022/05/09 02:06:48;;;;;;;;;;;;;;;19.27;57.57;100176.53;2084404;28;19916;-42
2022/05/09 02:07:48;;;;;;;;;;;;;;;19.26;57.54;100163.91;2084409;28;19916;-43
2022/05/09 02:08:49;;;;;;;;;;;;;;;19.26;57.78;100163.91;2081601;28;20228;-45
2022/05/09 02:09:50;;;;;;;;;;;;;;;19.27;57.62;100175.69;2084372;28;19935;-43
2022/05/09 02:10:50;;;;;;;;;;;;;;;19.26;57.63;100177.56;2083183;28;20063;-44
2022/05/09 02:11:50;;;;;;;;;;;;;;;19.25;57.71;100173.09;2083650;28;19920;-42
2022/05/09 02:12:51;;;;;;;;;;;;;;;19.25;57.69;100178.53;2083081;28;19912;-43
2022/05/09 02:13:51;;;;;;;;;;;;;;;19.26;57.83;100169.34;2083824;28;19966;-42
2022/05/09 02:14:51;;;;;;;;;;;;;;;19.26;57.73;100173.97;2081360;28;19917;-43
2022/05/09 02:15:51;;;;;;;;;;;;;;;19.25;57.73;100175.81;2081520;28;19916;-44
2022/05/09 02:16:52;;;;;;;;;;;;;;;19.26;57.75;100179.44;2087715;28;19974;-43
2022/05/09 02:17:52;;;;;;;;;;;;;;;19.25;57.73;100173.09;2084268;28;19912;-43
2022/05/09 02:18:52;;;;;;;;;;;;;;;19.25;57.75;100173.09;2083026;28;19942;-43
2022/05/09 02:19:55;;;;;;;;;;;;;;;19.25;57.72;100167.63;2083817;28;20287;-43
2022/05/09 02:20:55;;;;;;;;;;;;;;;19.25;57.73;100164.03;2083403;28;19952;-43
2022/05/09 02:21:55;;;;;;;;;;;;;;;19.26;57.67;100168.50;2082392;28;19920;-42
2022/05/09 02:22:56;;;;;;;;;;;;;;;19.26;57.71;100168.50;2082247;28;19916;-43
2022/05/09 02:23:56;;;;;;;;;;;;;;;19.26;57.70;100163.91;2084292;28;19916;-43
2022/05/09 02:24:56;;;;;;;;;;;;;;;19.26;57.53;100169.34;2083017;28;19909;-42
2022/05/09 02:25:57;;;;;;;;;;;;;;;19.26;57.58;100169.34;2084461;28;19921;-43
2022/05/09 02:26:57;;;;;;;;;;;;;;;19.26;57.53;100168.50;2084975;28;19923;-43
2022/05/09 02:27:59;;;;;;;;;;;;;;;19.26;57.58;100163.91;2074656;28;19908;-42
2022/05/09 02:28:59;;;;;;;;;;;;;;;19.26;57.53;100163.91;2075929;28;19920;-42
2022/05/09 02:30:01;;;;;;;;;;;;;;;19.27;57.56;100168.34;2084962;28;19958;-43
2022/05/09 02:31:01;;;;;;;;;;;;;;;19.26;57.48;100163.91;2082181;28;19935;-45
2022/05/09 02:32:03;;;;;;;;;;;;;;;19.26;57.55;100166.63;2084037;28;19982;-43
2022/05/09 02:33:04;;;;;;;;;;;;;;;19.27;57.51;100167.47;2091301;28;20741;-43
2022/05/09 02:34:04;;;;;;;;;;;;;;;19.25;57.50;100173.09;2083651;28;19980;-42
2022/05/09 02:35:05;;;;;;;;;;;;;;;19.25;57.47;100162.16;2084448;28;19916;-43
2022/05/09 02:36:05;;;;;;;;;;;;;;;19.27;57.60;100171.06;2084498;28;19916;-43
2022/05/09 02:37:06;;;;;;;;;;;;;;;19.25;57.58;100164.03;2083191;28;19913;-45
2022/05/09 02:38:06;;;;;;;;;;;;;;;19.24;57.55;100163.19;2084725;28;19917;-43
2022/05/09 02:39:07;;;;;;;;;;;;;;;19.24;57.60;100170.53;2082256;28;19916;-43
2022/05/09 02:40:07;;;;;;;;;;;;;;;19.24;57.65;100171.38;2084332;28;19923;-43
2022/05/09 02:41:08;;;;;;;;;;;;;;;19.24;57.63;100171.38;2082360;28;21080;-43
2022/05/09 02:42:08;;;;;;;;;;;;;;;19.24;57.73;100176.84;2084674;28;19939;-43
2022/05/09 02:43:08;;;;;;;;;;;;;;;19.23;57.60;100164.19;2083037;28;19951;-43
2022/05/09 02:44:08;;;;;;;;;;;;;;;19.24;57.68;100175.97;2083225;28;19916;-44
2022/05/09 02:45:10;;;;;;;;;;;;;;;19.23;57.64;100161.47;2085019;28;19920;-43
2022/05/09 02:46:11;;;;;;;;;;;;;;;19.24;57.73;100165.06;2082783;28;19921;-43
2022/05/09 02:47:11;;;;;;;;;;;;;;;19.23;57.74;100169.66;2084508;28;19921;-44
2022/05/09 02:48:12;;;;;;;;;;;;;;;19.23;57.71;100158.72;2083668;28;19916;-44
2022/05/09 02:49:12;;;;;;;;;;;;;;;19.22;57.82;100167.94;2082377;28;20187;-42
2022/05/09 02:50:14;;;;;;;;;;;;;;;19.22;57.72;100167.94;2083488;28;19920;-42
2022/05/09 02:51:15;;;;;;;;;;;;;;;19.23;57.77;100175.13;2083619;28;20246;-44
2022/05/09 02:52:15;;;;;;;;;;;;;;;19.23;57.82;100176.97;2083684;28;19924;-42
2022/05/09 02:53:16;;;;;;;;;;;;;;;19.23;57.71;100177.88;2078877;28;19917;-43
2022/05/09 02:54:16;;;;;;;;;;;;;;;19.22;57.84;100173.38;2075810;28;20244;-42
2022/05/09 02:55:17;;;;;;;;;;;;;;;19.23;57.63;100174.25;2083842;28;19908;-42
2022/05/09 02:56:18;;;;;;;;;;;;;;;19.23;57.64;100180.59;2074929;28;19917;-43
2022/05/09 02:57:18;;;;;;;;;;;;;;;19.23;57.57;100177.88;2076619;28;19917;-42
2022/05/09 02:58:19;;;;;;;;;;;;;;;19.23;57.67;100180.59;2084351;28;19930;-42
2022/05/09 02:59:20;;;;;;;;;;;;;;;19.23;57.68;100175.13;2074595;28;20311;-42
2022/05/09 03:00:22;;;;;;;;;;;;;;;19.22;57.56;100172.53;2075160;28;20268;-43
2022/05/09 03:01:23;;;;;;;;;;;;;;;19.23;57.57;100175.13;2083586;28;19972;-42
2022/05/09 03:02:23;;;;;;;;;;;;;;;19.23;57.56;100168.78;2083468;28;20272;-43
2022/05/09 03:04:45;;;;;;;;;;;;;;;19.23;57.58;100179.72;2083536;28;20048;-42
2022/05/09 03:05:46;;;;;;;;;;;;;;;19.24;57.50;100176.84;2083787;28;20015;-45
2022/05/09 03:06:46;;;;;;;;;;;;;;;19.23;57.50;100180.59;2083889;28;19961;-45
2022/05/09 03:07:47;;;;;;;;;;;;;;;19.23;57.54;100172.41;2084843;28;20755;-42
2022/05/09 03:08:47;;;;;;;;;;;;;;;19.23;57.52;100175.13;2083223;28;19920;-43
2022/05/09 03:09:48;;;;;;;;;;;;;;;19.23;57.51;100180.59;2083061;28;19916;-45
2022/05/09 03:10:49;;;;;;;;;;;;;;;19.22;57.58;100173.38;2082967;28;19913;-42
2022/05/09 03:11:49;;;;;;;;;;;;;;;19.22;57.59;100181.59;2083705;28;19917;-44
2022/05/09 03:12:50;;;;;;;;;;;;;;;19.22;57.72;100178.84;2084057;28;19913;-44
2022/05/09 03:13:50;;;;;;;;;;;;;;;19.22;57.61;100178.00;2083506;28;20114;-43
2022/05/09 03:14:51;;;;;;;;;;;;;;;19.21;57.68;100188.06;2075266;28;19923;-44
2022/05/09 03:15:51;;;;;;;;;;;;;;;19.22;57.79;100186.19;2074787;28;20360;-43
2022/05/09 03:16:52;;;;;;;;;;;;;;;19.20;57.78;100183.59;2083918;28;19962;-43
2022/05/09 03:17:52;;;;;;;;;;;;;;;19.21;57.79;100188.06;2082907;28;20376;-44
2022/05/09 03:18:52;;;;;;;;;;;;;;;19.20;57.71;100186.34;2083789;28;19924;-44
2022/05/09 03:19:53;;;;;;;;;;;;;;;19.21;57.71;100192.69;2083557;28;19917;-43
2022/05/09 03:20:54;;;;;;;;;;;;;;;19.19;57.72;100184.63;2085525;28;20216;-43
2022/05/09 03:21:54;;;;;;;;;;;;;;;19.20;57.78;100191.81;2084919;28;19924;-42
2022/05/09 03:22:55;;;;;;;;;;;;;;;19.20;57.84;100183.59;2084051;28;20256;-43
2022/05/09 03:23:55;;;;;;;;;;;;;;;19.20;57.77;100189.06;2077471;28;20374;-43
2022/05/09 03:24:55;;;;;;;;;;;;;;;19.19;57.76;100189.25;2075138;28;19990;-43
2022/05/09 03:25:56;;;;;;;;;;;;;;;19.20;57.84;100189.06;2083605;28;19920;-43
2022/05/09 03:26:59;;;;;;;;;;;;;;;19.18;57.74;100185.66;2075812;28;20386;-43
2022/05/09 03:27:59;;;;;;;;;;;;;;;19.20;57.72;100186.34;2075827;28;19916;-43
2022/05/09 03:29:00;;;;;;;;;;;;;;;19.20;57.64;100190.94;2085358;28;20069;-42
2022/05/09 03:30:00;;;;;;;;;;;;;;;19.20;57.76;100202.72;2084742;28;20201;-42
2022/05/09 03:31:01;;;;;;;;;;;;;;;19.20;57.62;100194.53;2085558;28;19908;-42
2022/05/09 03:32:01;;;;;;;;;;;;;;;19.20;57.67;100191.81;2084376;28;19909;-45
2022/05/09 03:33:01;;;;;;;;;;;;;;;19.21;57.61;100193.53;2085621;28;20198;-43
2022/05/09 03:34:02;;;;;;;;;;;;;;;19.20;57.60;100186.34;2085017;28;19966;-45
2022/05/09 03:35:03;;;;;;;;;;;;;;;19.20;57.52;100191.81;2081280;28;19908;-43
2022/05/09 03:36:04;;;;;;;;;;;;;;;19.21;57.52;100193.53;2085834;28;20163;-43
2022/05/09 03:37:06;;;;;;;;;;;;;;;19.21;57.60;100188.06;2084219;28;19920;-42
2022/05/09 03:38:06;;;;;;;;;;;;;;;19.21;57.53;100193.53;2084518;28;19915;-43
2022/05/09 03:39:07;;;;;;;;;;;;;;;19.20;57.55;100197.25;2077235;28;20313;-43
2022/05/09 03:40:07;;;;;;;;;;;;;;;19.20;57.54;100202.72;2074708;28;19928;-43
2022/05/09 03:41:07;;;;;;;;;;;;;;;19.20;57.68;100194.53;2086365;28;20682;-42
2022/05/09 03:42:08;;;;;;;;;;;;;;;19.20;57.59;100194.53;2084508;28;19923;-42
2022/05/09 03:43:08;;;;;;;;;;;;;;;19.20;57.58;100197.25;2083896;28;19923;-43
2022/05/09 03:44:08;;;;;;;;;;;;;;;19.19;57.62;100201.03;2085266;28;19908;-43
2022/05/09 03:45:09;;;;;;;;;;;;;;;19.19;57.70;100195.56;2084348;28;19973;-43
2022/05/09 03:46:09;;;;;;;;;;;;;;;19.18;57.70;100198.44;2085124;28;19920;-45
2022/05/09 03:47:09;;;;;;;;;;;;;;;19.18;57.65;100199.31;2084124;28;19956;-43
2022/05/09 03:48:10;;;;;;;;;;;;;;;19.18;57.71;100198.44;2085182;28;19915;-42
2022/05/09 03:49:11;;;;;;;;;;;;;;;19.17;57.65;100197.56;2084795;28;19999;-43
2022/05/09 03:50:13;;;;;;;;;;;;;;;19.17;57.71;100203.03;2075062;28;19980;-42
2022/05/09 03:51:13;;;;;;;;;;;;;;;19.17;57.73;100194.84;2075142;28;19991;-44
2022/05/09 03:52:13;;;;;;;;;;;;;;;19.17;57.66;100197.56;2075415;28;19924;-42
2022/05/09 03:53:14;;;;;;;;;;;;;;;19.17;57.73;100202.19;2076918;28;19921;-42
2022/05/09 03:54:14;;;;;;;;;;;;;;;19.16;57.82;100195.84;2084840;28;20008;-43
2022/05/09 03:55:14;;;;;;;;;;;;;;;19.17;57.71;100199.44;2078900;28;19924;-42
2022/05/09 03:56:15;;;;;;;;;;;;;;;19.16;57.70;100198.59;2076431;28;19972;-43
2022/05/09 03:57:15;;;;;;;;;;;;;;;19.16;57.69;100195.84;2084601;28;19923;-43
2022/05/09 03:58:16;;;;;;;;;;;;;;;19.17;57.74;100197.56;2083264;28;20608;-42
2022/05/09 03:59:16;;;;;;;;;;;;;;;19.16;57.59;100195.84;2085205;28;20687;-43
2022/05/09 04:00:18;;;;;;;;;;;;;;;19.15;57.57;100194.13;2085074;28;19919;-43
2022/05/09 04:01:18;;;;;;;;;;;;;;;19.16;57.67;100190.41;2083975;28;19920;-43
2022/05/09 04:02:18;;;;;;;;;;;;;;;19.17;57.58;100202.19;2084384;28;19955;-44
2022/05/09 04:03:19;;;;;;;;;;;;;;;19.17;57.61;100197.56;2085723;28;19916;-43
2022/05/09 04:04:19;;;;;;;;;;;;;;;19.17;57.41;100196.72;2084730;28;20353;-43
2022/05/09 04:05:20;;;;;;;;;;;;;;;19.17;57.61;100192.09;2083022;28;19920;-43
2022/05/09 04:06:21;;;;;;;;;;;;;;;19.17;57.52;100194.84;2085439;28;20023;-43
2022/05/09 04:07:21;;;;;;;;;;;;;;;19.18;57.54;100201.16;2084845;28;19917;-44
2022/05/09 04:08:21;;;;;;;;;;;;;;;19.18;57.61;100198.44;2087013;28;19985;-45
2022/05/09 04:09:22;;;;;;;;;;;;;;;19.18;57.63;100199.31;2082655;28;19923;-43
2022/05/09 04:10:24;;;;;;;;;;;;;;;19.18;57.53;100203.88;2074411;28;20154;-43
2022/05/09 04:11:24;;;;;;;;;;;;;;;19.18;57.50;100198.44;2075952;28;19920;-43
2022/05/09 04:12:24;;;;;;;;;;;;;;;19.18;57.53;100198.44;2084335;28;19923;-44
2022/05/09 04:13:24;;;;;;;;;;;;;;;19.17;57.53;100203.03;2082339;28;20318;-43
2022/05/09 04:17:09;;;;;;;;;;;;;;;19.16;57.58;100198.59;2081390;28;20446;-43
2022/05/09 04:18:09;;;;;;;;;;;;;;;19.16;57.60;100208.66;2084026;28;19943;-44
2022/05/09 04:19:10;;;;;;;;;;;;;;;19.15;57.68;100205.03;2083709;28;19925;-44
2022/05/09 04:20:11;;;;;;;;;;;;;;;19.14;57.60;100203.34;2083953;28;19916;-43
2022/05/09 04:21:12;;;;;;;;;;;;;;;19.15;57.51;100198.72;2081368;28;19928;-43
2022/05/09 04:22:12;;;;;;;;;;;;;;;19.14;57.57;100203.34;2082039;28;19920;-43
2022/05/09 04:23:13;;;;;;;;;;;;;;;19.15;57.65;100209.66;2081835;28;19916;-42
2022/05/09 04:24:13;;;;;;;;;;;;;;;19.14;57.66;100203.34;2079589;28;19952;-42
2022/05/09 04:25:15;;;;;;;;;;;;;;;19.14;57.77;100214.28;2080202;28;20303;-42
2022/05/09 04:26:16;;;;;;;;;;;;;;;19.14;57.64;100206.06;2084241;28;19939;-42
2022/05/09 04:27:17;;;;;;;;;;;;;;;19.14;57.69;100211.53;2083199;28;19909;-44
2022/05/09 04:28:18;;;;;;;;;;;;;;;19.13;57.67;100207.06;2078898;28;20152;-44
2022/05/09 04:29:18;;;;;;;;;;;;;;;19.14;57.66;100213.41;2083507;28;19991;-43
2022/05/09 04:30:18;;;;;;;;;;;;;;;19.13;57.56;100215.25;2084540;28;19920;-43
2022/05/09 04:31:19;;;;;;;;;;;;;;;19.13;57.63;100212.53;2082972;28;20334;-44
2022/05/09 04:32:20;;;;;;;;;;;;;;;19.13;57.65;100209.78;2082989;28;19951;-43
2022/05/09 04:33:20;;;;;;;;;;;;;;;19.13;57.71;100215.25;2082638;28;19973;-44
2022/05/09 04:34:21;;;;;;;;;;;;;;;19.13;57.52;100209.78;2082281;28;19946;-43
2022/05/09 04:35:21;;;;;;;;;;;;;;;19.14;57.50;100219.72;2084328;28;20151;-43
2022/05/09 04:36:22;;;;;;;;;;;;;;;19.14;57.58;100218.88;2082327;28;20140;-44
2022/05/09 04:37:22;;;;;;;;;;;;;;;19.14;57.54;100214.28;2084375;28;20326;-42
2022/05/09 04:38:23;;;;;;;;;;;;;;;19.14;57.64;100218.88;2081828;28;20994;-42
2022/05/09 04:39:24;;;;;;;;;;;;;;;19.14;57.54;100216.16;2079560;28;19932;-42
2022/05/09 04:40:26;;;;;;;;;;;;;;;19.14;57.51;100218.88;2079450;28;19916;-43
2022/05/09 04:41:27;;;;;;;;;;;;;;;19.13;57.52;100218.00;2084065;28;20033;-42
2022/05/09 04:42:27;;;;;;;;;;;;;;;19.15;57.58;100221.44;2082238;28;19917;-43
2022/05/09 04:43:28;;;;;;;;;;;;;;;19.13;57.44;100218.00;2083359;28;20656;-42
2022/05/09 04:44:28;;;;;;;;;;;;;;;19.13;57.53;100218.00;2083077;28;19915;-42
2022/05/09 04:45:29;;;;;;;;;;;;;;;19.14;57.61;100217.00;2083086;28;19924;-44
2022/05/09 04:46:30;;;;;;;;;;;;;;;19.14;57.50;100222.47;2082279;28;19932;-42
2022/05/09 04:47:30;;;;;;;;;;;;;;;19.14;57.33;100216.16;2082994;28;20288;-42
2022/05/09 04:48:31;;;;;;;;;;;;;;;19.13;57.41;100222.59;2083458;28;21033;-42
2022/05/09 04:49:31;;;;;;;;;;;;;;;19.14;57.52;100218.88;2084776;28;19916;-43
2022/05/09 04:50:34;;;;;;;;;;;;;;;19.14;57.52;100229.81;2081962;28;20545;-43
2022/05/09 04:51:35;;;;;;;;;;;;;;;19.13;57.53;100228.91;2082888;28;20543;-42
2022/05/09 04:52:35;;;;;;;;;;;;;;;19.12;57.43;100232.69;2082907;28;19921;-44
2022/05/09 04:53:35;;;;;;;;;;;;;;;19.12;57.42;100221.75;2082237;28;20386;-44
2022/05/09 04:54:36;;;;;;;;;;;;;;;19.12;57.57;100229.94;2082011;28;20266;-43
2022/05/09 04:55:37;;;;;;;;;;;;;;;19.11;57.50;100230.06;2081904;28;20524;-43
2022/05/09 04:56:37;;;;;;;;;;;;;;;19.12;57.43;100232.69;2081443;28;20226;-43
2022/05/09 04:57:38;;;;;;;;;;;;;;;19.11;57.46;100225.50;2085561;28;19922;-44
2022/05/09 04:58:38;;;;;;;;;;;;;;;19.11;57.53;100227.34;2082898;28;19931;-44
2022/05/09 04:59:38;;;;;;;;;;;;;;;19.11;57.46;100224.63;2083161;28;19920;-44
2022/05/09 05:00:39;;;;;;;;;;;;;;;19.11;57.66;100225.50;2082415;28;19920;-43
2022/05/09 05:01:39;;;;;;;;;;;;;;;19.11;57.49;100233.69;2072198;28;20270;-43
2022/05/09 05:02:40;;;;;;;;;;;;;;;19.11;57.53;100230.97;2067799;28;19928;-43
2022/05/09 05:03:40;;;;;;;;;;;;;;;19.11;57.53;100228.22;2074204;28;20014;-42
2022/05/09 05:04:42;;;;;;;;;;;;;;;19.10;57.50;100233.84;2076670;28;20694;-43
2022/05/09 05:05:43;;;;;;;;;;;;;;;19.11;57.48;100241.00;2082331;28;20210;-42
2022/05/09 05:06:46;;;;;;;;;;;;;;;19.10;57.45;100234.69;2077098;28;19920;-43
2022/05/09 05:07:46;;;;;;;;;;;;;;;19.11;57.43;100236.44;2081861;28;20017;-43
2022/05/09 05:08:46;;;;;;;;;;;;;;;19.11;57.43;100236.44;2082192;28;20166;-44
2022/05/09 05:09:47;;;;;;;;;;;;;;;19.11;57.46;100239.16;2082743;28;19917;-43
2022/05/09 05:10:52;;;;;;;;;;;;;;;19.11;57.42;100239.16;2082398;28;19923;-42
2022/05/09 05:11:53;;;;;;;;;;;;;;;19.12;57.48;100243.59;2086092;28;19984;-43
2022/05/09 05:12:53;;;;;;;;;;;;;;;19.11;57.27;100243.75;2082275;28;19927;-42
2022/05/09 05:13:54;;;;;;;;;;;;;;;19.11;57.50;100239.16;2074486;28;19913;-43
2022/05/09 05:14:54;;;;;;;;;;;;;;;19.12;57.43;100246.34;2063206;28;19920;-42
2022/05/09 05:15:55;;;;;;;;;;;;;;;19.11;57.37;100247.34;2075368;28;19984;-43
2022/05/09 05:16:59;;;;;;;;;;;;;;;19.12;57.37;100246.34;2071627;28;19921;-43
2022/05/09 05:17:59;;;;;;;;;;;;;;;19.12;57.34;100248.22;2075200;28;20142;-42
2022/05/09 05:18:59;;;;;;;;;;;;;;;19.11;57.36;100252.81;2079321;28;20027;-44
2022/05/09 05:20:00;;;;;;;;;;;;;;;19.12;57.41;100259.16;2082255;28;20625;-42
2022/05/09 05:21:11;;;;;;;;;;;;;;;19.11;57.44;100258.28;2085676;28;19920;-44